Aviation Digital Data Service (ADDS)

Output produced by METARs form (1735 UTC 03 July 2020)
found at http://aviationweather.gov/metar/data/
 
METAR text: EDDW 031720Z 22007KT 9999 -RA SCT040 19/14 Q1014 NOSIG
Conditions at: EDDW (BREMEN , DE) observed 1720 UTC 03 July 2020
Temperature: 19.0°C (66°F)
Dewpoint: 14.0°C (57°F) [RH = 73%]
Pressure (altimeter): 29.94 inches Hg (1014.0 mb)
Winds: from the SW (220 degrees) at 8 MPH (7 knots; 3.6 m/s)
Visibility: 6 or more miles (10+ km)
Ceiling: at least 12,000 feet AGL
Clouds: scattered clouds at 4000 feet AGL
Weather: -RA  (light rain)

METAR text: EDDW 031650Z 22007KT CAVOK 19/14 Q1014 NOSIG
Conditions at: EDDW (BREMEN , DE) observed 1650 UTC 03 July 2020
Temperature: 19.0°C (66°F)
Dewpoint: 14.0°C (57°F) [RH = 73%]
Pressure (altimeter): 29.94 inches Hg (1014.0 mb)
Winds: from the SW (220 degrees) at 8 MPH (7 knots; 3.6 m/s)
Visibility: 6 or more miles (10+ km)
Ceiling: ceiling and visibility are OK
Clouds: unknown
Weather: no significant weather observed at this time

Forecast for: EDDW (BREMEN , DE)
Text: TAF EDDW 031700Z 0318/0418 25006KT 9999 SCT030
Forecast period: 1800 UTC 03 July 2020 to 0300 UTC 04 July 2020
Forecast type: FROM: standard forecast or significant change
Winds: from the WSW (250 degrees) at 7 MPH (6 knots; 3.1 m/s)
Visibility: 6 or more miles 10+ km)
Ceiling: at least 12,000 feet AGL
Clouds: scattered clouds at 3000 feet AGL
Weather: no significant weather forecast for this period
Text: BECMG 0403/0405 22011KT
Forecast period: 0300 to 1800 UTC 04 July 2020
Forecast type: BECOMING: Conditions expected to become as follows by 0500 UTC 04 July 2020
Winds: from the SW (220 degrees) at 13 MPH (11 knots; 5.7 m/s)
Visibility: 6 or more miles 10+ km)
Ceiling: at least 12,000 feet AGL
Clouds: scattered clouds at 3000 feet AGL
Weather: no significant weather forecast for this period
Text: TEMPO 0407/0417 22020G30KT
Forecast period: 0700 to 1700 UTC 04 July 2020
Forecast type: TEMPORARY: The following changes expected for less than half the time period
Winds: from the SW (220 degrees) at 23 MPH (20 knots; 10.3 m/s)
gusting to 34 MPH (30 knots; 15.4 m/s)
Visibility: missing
Ceiling: unknown
Clouds: missing
Weather: no significant weather forecast for this period
Text: PROB40
Forecast period: 0700 to 1100 UTC 04 July 2020
Forecast type: TEMPORARY: The following changes expected for less than half the time period
Visibility: 2.49 miles (4.01 km)
Ceiling: 800 feet AGL
Clouds: broken clouds at 800 feet AGL
Weather: RA  (moderate rain)
Text: TEMPO 0407/0411 4000 RA BKN008
Forecast period: 1100 to 1800 UTC 04 July 2020
Forecast type: TEMPORARY: The following changes expected for less than half the time period
Visibility: missing
Ceiling: 1200 feet AGL
Clouds: broken clouds at 1200 feet AGL
Weather: no significant weather forecast for this period